PWSweather.com
Personal Weather Stations
Station Observations
IESRVJEREZ
Ies Fco. Romero Vargas, Jerez De La FronteraES 11408

Ies Fco. Romero VargasJerez De La FronteraES 11408

Lat: 36.67203, Lon: -6.129915

Elevation: 98

Station Type: FWS 20

http://www.iesromerovargas.net/estacion_meteorologica/Cumulus/web/

High Low Average
Temperature 58.8°F14.9°C 55.6°F13.1°C 55.8°F13.2°C
Dew Point 53.2°F11.8°C 50.2°F10.1°C 52.0°F11.1°C
Winds 4.5 mph 7.2 kmh Calm Calm 1.0 mph SE1.6 kmh SE
Wind Gusts 6.0 mph9.7 kmh -- 3.0 mph4.8 kmh
Humidity 88% 32% 68%
Pressure 30.02 in1016.6 mb 29.93 in1013.5 mb -
Precipitation 0.00 in0.0 mm - -
Hour Temp Dew Point Humidity Winds Wind Gusts Pressure Precip Precip Rate Daily Precip Total
12:00 AM 57.4°F14.1°C 53.2°F11.8°C 86% 0.7 mph SE1.1 kmh SE 2.2 mph3.5 kmh 30.00 in1015.9 mb 0.00 in0.0 mm 0.00 in0.0 mm 0.00 in0.0 mm
12:15 AM 55.9°F13.3°C 52.1°F11.2°C 87% 1.6 mph SSE2.6 kmh SSE 2.2 mph3.5 kmh 30.00 in1015.9 mb 0.00 in0.0 mm 0.00 in0.0 mm 0.00 in0.0 mm
12:30 AM 55.9°F13.3°C 52.4°F11.3°C 88% 0.7 mph ESE1.1 kmh ESE 3.1 mph5.0 kmh 30.00 in1015.9 mb 0.00 in0.0 mm 0.00 in0.0 mm 0.00 in0.0 mm
12:45 AM 55.6°F13.1°C 52.1°F11.2°C 88% 0.7 mph SE1.1 kmh SE 1.6 mph2.6 kmh 30.00 in1015.9 mb 0.00 in0.0 mm 0.00 in0.0 mm 0.00 in0.0 mm
01:00 AM 55.6°F13.1°C 52.1°F11.2°C 88% 0.7 mph SE1.1 kmh SE 1.6 mph2.6 kmh 30.00 in1015.9 mb 0.00 in0.0 mm 0.00 in0.0 mm 0.00 in0.0 mm
01:15 AM 55.6°F13.1°C 52.1°F11.2°C 88% 0.7 mph SE1.1 kmh SE 1.6 mph2.6 kmh 29.99 in1015.6 mb 0.00 in0.0 mm 0.00 in0.0 mm 0.00 in0.0 mm
01:30 AM 55.6°F13.1°C 52.1°F11.2°C 88% 0.7 mph SE1.1 kmh SE 1.6 mph2.6 kmh 29.99 in1015.6 mb 0.00 in0.0 mm 0.00 in0.0 mm 0.00 in0.0 mm
01:45 AM 55.6°F13.1°C 52.1°F11.2°C 88% 0.7 mph SE1.1 kmh SE 1.6 mph2.6 kmh 29.98 in1015.2 mb 0.00 in0.0 mm 0.00 in0.0 mm 0.00 in0.0 mm
02:00 AM 55.6°F13.1°C 52.1°F11.2°C 88% 0.7 mph SE1.1 kmh SE 1.6 mph2.6 kmh 29.99 in1015.6 mb 0.00 in0.0 mm 0.00 in0.0 mm 0.00 in0.0 mm
02:15 AM 55.6°F13.1°C 52.1°F11.2°C 88% 0.7 mph SE1.1 kmh SE 1.6 mph2.6 kmh 29.98 in1015.2 mb 0.00 in0.0 mm 0.00 in0.0 mm 0.00 in0.0 mm
02:30 AM 55.6°F13.1°C 52.1°F11.2°C 88% 0.7 mph SE1.1 kmh SE 1.6 mph2.6 kmh 29.98 in1015.2 mb 0.00 in0.0 mm 0.00 in0.0 mm 0.00 in0.0 mm
02:45 AM 55.6°F13.1°C 52.1°F11.2°C 88% 0.7 mph SE1.1 kmh SE 1.6 mph2.6 kmh 29.98 in1015.2 mb 0.00 in0.0 mm 0.00 in0.0 mm 0.00 in0.0 mm
03:00 AM 55.6°F13.1°C 52.1°F11.2°C 88% 0.7 mph SE1.1 kmh SE 1.6 mph2.6 kmh 29.98 in1015.2 mb 0.00 in0.0 mm 0.00 in0.0 mm 0.00 in0.0 mm
03:15 AM 55.6°F13.1°C 52.1°F11.2°C 88% 0.7 mph SE1.1 kmh SE 1.6 mph2.6 kmh 29.98 in1015.2 mb 0.00 in0.0 mm 0.00 in0.0 mm 0.00 in0.0 mm
03:30 AM 55.6°F13.1°C 52.1°F11.2°C 88% 0.7 mph SE1.1 kmh SE 1.6 mph2.6 kmh 29.98 in1015.2 mb 0.00 in0.0 mm 0.00 in0.0 mm 0.00 in0.0 mm
03:45 AM 55.6°F13.1°C 52.1°F11.2°C 88% 0.7 mph SE1.1 kmh SE 1.6 mph2.6 kmh 29.98 in1015.2 mb 0.00 in0.0 mm 0.00 in0.0 mm 0.00 in0.0 mm
04:00 AM 55.6°F13.1°C 52.1°F11.2°C 88% 0.7 mph SE1.1 kmh SE 1.6 mph2.6 kmh 29.98 in1015.2 mb 0.00 in0.0 mm 0.00 in0.0 mm 0.00 in0.0 mm
04:15 AM 55.6°F13.1°C 52.1°F11.2°C 88% 0.7 mph SE1.1 kmh SE 1.6 mph2.6 kmh 29.98 in1015.2 mb 0.00 in0.0 mm 0.00 in0.0 mm 0.00 in0.0 mm
04:30 AM 55.6°F13.1°C 52.1°F11.2°C 88% 0.7 mph SE1.1 kmh SE 1.6 mph2.6 kmh 29.98 in1015.2 mb 0.00 in0.0 mm 0.00 in0.0 mm 0.00 in0.0 mm
04:45 AM 55.6°F13.1°C 52.1°F11.2°C 88% 0.7 mph SE1.1 kmh SE 1.6 mph2.6 kmh 29.97 in1014.9 mb 0.00 in0.0 mm 0.00 in0.0 mm 0.00 in0.0 mm
05:00 AM 55.6°F13.1°C 52.1°F11.2°C 88% 0.7 mph SE1.1 kmh SE 1.6 mph2.6 kmh 29.98 in1015.2 mb 0.00 in0.0 mm 0.00 in0.0 mm 0.00 in0.0 mm
05:15 AM 55.6°F13.1°C 52.1°F11.2°C 88% 0.7 mph SE1.1 kmh SE 1.6 mph2.6 kmh 29.98 in1015.2 mb 0.00 in0.0 mm 0.00 in0.0 mm 0.00 in0.0 mm
05:30 AM 55.6°F13.1°C 52.1°F11.2°C 88% 0.7 mph SE1.1 kmh SE 1.6 mph2.6 kmh 29.97 in1014.9 mb 0.00 in0.0 mm 0.00 in0.0 mm 0.00 in0.0 mm
05:45 AM 55.6°F13.1°C 52.1°F11.2°C 88% 0.7 mph SE1.1 kmh SE 1.6 mph2.6 kmh 29.98 in1015.2 mb 0.00 in0.0 mm 0.00 in0.0 mm 0.00 in0.0 mm
06:00 AM 55.6°F13.1°C 52.1°F11.2°C 88% 0.7 mph SE1.1 kmh SE 1.6 mph2.6 kmh 29.98 in1015.2 mb 0.00 in0.0 mm 0.00 in0.0 mm 0.00 in0.0 mm
06:15 AM 55.6°F13.1°C 52.1°F11.2°C 88% 0.7 mph SE1.1 kmh SE 1.6 mph2.6 kmh 29.98 in1015.2 mb 0.00 in0.0 mm 0.00 in0.0 mm 0.00 in0.0 mm
06:30 AM 55.6°F13.1°C 52.1°F11.2°C 88% 0.7 mph SE1.1 kmh SE 1.6 mph2.6 kmh 29.97 in1014.9 mb 0.00 in0.0 mm 0.00 in0.0 mm 0.00 in0.0 mm
06:45 AM 55.6°F13.1°C 52.1°F11.2°C 88% 0.7 mph SE1.1 kmh SE 1.6 mph2.6 kmh 29.98 in1015.2 mb 0.00 in0.0 mm 0.00 in0.0 mm 0.00 in0.0 mm
07:00 AM 55.6°F13.1°C 52.1°F11.2°C 88% 0.7 mph SE1.1 kmh SE 1.6 mph2.6 kmh 29.98 in1015.2 mb 0.00 in0.0 mm 0.00 in0.0 mm 0.00 in0.0 mm
07:15 AM 55.6°F13.1°C 52.1°F11.2°C 88% 0.7 mph SE1.1 kmh SE 1.6 mph2.6 kmh 29.98 in1015.2 mb 0.00 in0.0 mm 0.00 in0.0 mm 0.00 in0.0 mm
07:30 AM 55.6°F13.1°C 52.1°F11.2°C 88% 0.7 mph SE1.1 kmh SE 1.6 mph2.6 kmh 29.98 in1015.2 mb 0.00 in0.0 mm 0.00 in0.0 mm 0.00 in0.0 mm
07:45 AM 55.6°F13.1°C 52.1°F11.2°C 88% 0.7 mph SE1.1 kmh SE 1.6 mph2.6 kmh 29.98 in1015.2 mb 0.00 in0.0 mm 0.00 in0.0 mm 0.00 in0.0 mm
08:00 AM 55.6°F13.1°C 52.1°F11.2°C 88% 0.7 mph SE1.1 kmh SE 1.6 mph2.6 kmh 29.98 in1015.2 mb 0.00 in0.0 mm 0.00 in0.0 mm 0.00 in0.0 mm
08:15 AM 55.6°F13.1°C 52.1°F11.2°C 88% 0.7 mph SE1.1 kmh SE 1.6 mph2.6 kmh 29.98 in1015.2 mb 0.00 in0.0 mm 0.00 in0.0 mm 0.00 in0.0 mm
08:30 AM 55.6°F13.1°C 52.1°F11.2°C 88% 0.7 mph SE1.1 kmh SE 1.6 mph2.6 kmh 29.99 in1015.6 mb 0.00 in0.0 mm 0.00 in0.0 mm 0.00 in0.0 mm
08:45 AM 55.6°F13.1°C 52.1°F11.2°C 88% 0.7 mph SE1.1 kmh SE 1.6 mph2.6 kmh 29.99 in1015.6 mb 0.00 in0.0 mm 0.00 in0.0 mm 0.00 in0.0 mm
09:00 AM 55.6°F13.1°C 52.1°F11.2°C 88% 0.7 mph SE1.1 kmh SE 1.6 mph2.6 kmh 29.99 in1015.6 mb 0.00 in0.0 mm 0.00 in0.0 mm 0.00 in0.0 mm
09:15 AM 55.6°F13.1°C 52.1°F11.2°C 88% 0.7 mph SE1.1 kmh SE 1.6 mph2.6 kmh 30.00 in1015.9 mb 0.00 in0.0 mm 0.00 in0.0 mm 0.00 in0.0 mm
09:30 AM 55.6°F13.1°C 52.1°F11.2°C 88% 0.7 mph SE1.1 kmh SE 1.6 mph2.6 kmh 30.00 in1015.9 mb 0.00 in0.0 mm 0.00 in0.0 mm 0.00 in0.0 mm
09:45 AM 55.6°F13.1°C 52.1°F11.2°C 70% Calm Calm -- 30.01 in1016.3 mb 0.00 in0.0 mm 0.00 in0.0 mm 0.00 in0.0 mm
10:00 AM 55.6°F13.1°C 52.1°F11.2°C 64% Calm Calm 1.6 mph2.6 kmh 30.01 in1016.3 mb 0.00 in0.0 mm 0.00 in0.0 mm 0.00 in0.0 mm
10:15 AM 55.6°F13.1°C 52.1°F11.2°C 61% 0.7 mph SSW1.1 kmh SSW 2.2 mph3.5 kmh 30.01 in1016.3 mb 0.00 in0.0 mm 0.00 in0.0 mm 0.00 in0.0 mm
10:30 AM 55.6°F13.1°C 52.1°F11.2°C 59% 0.7 mph NE1.1 kmh NE 3.8 mph6.1 kmh 30.01 in1016.3 mb 0.00 in0.0 mm 0.00 in0.0 mm 0.00 in0.0 mm
10:45 AM 55.6°F13.1°C 52.1°F11.2°C 59% 1.6 mph ESE2.6 kmh ESE 3.1 mph5.0 kmh 30.01 in1016.3 mb 0.00 in0.0 mm 0.00 in0.0 mm 0.00 in0.0 mm
11:00 AM 55.6°F13.1°C 52.1°F11.2°C 57% 1.6 mph S2.6 kmh S 2.2 mph3.5 kmh 30.01 in1016.3 mb 0.00 in0.0 mm 0.00 in0.0 mm 0.00 in0.0 mm
11:15 AM 55.6°F13.1°C 52.1°F11.2°C 56% 1.6 mph SSE2.6 kmh SSE 3.8 mph6.1 kmh 30.01 in1016.3 mb 0.00 in0.0 mm 0.00 in0.0 mm 0.00 in0.0 mm
11:30 AM 55.6°F13.1°C 52.1°F11.2°C 53% 0.7 mph NE1.1 kmh NE 3.8 mph6.1 kmh 30.02 in1016.6 mb 0.00 in0.0 mm 0.00 in0.0 mm 0.00 in0.0 mm
11:45 AM 55.6°F13.1°C 52.1°F11.2°C 52% Calm Calm 3.8 mph6.1 kmh 30.01 in1016.3 mb 0.00 in0.0 mm 0.00 in0.0 mm 0.00 in0.0 mm
12:00 PM 55.6°F13.1°C 52.1°F11.2°C 51% 1.6 mph SSE2.6 kmh SSE 5.4 mph8.7 kmh 30.01 in1016.3 mb 0.00 in0.0 mm 0.00 in0.0 mm 0.00 in0.0 mm
12:15 PM 55.6°F13.1°C 52.1°F11.2°C 50% Calm Calm 3.1 mph5.0 kmh 30.00 in1015.9 mb 0.00 in0.0 mm 0.00 in0.0 mm 0.00 in0.0 mm
12:30 PM 55.6°F13.1°C 52.1°F11.2°C 43% 1.6 mph E2.6 kmh E 3.8 mph6.1 kmh 30.00 in1015.9 mb 0.00 in0.0 mm 0.00 in0.0 mm 0.00 in0.0 mm
12:45 PM 55.6°F13.1°C 52.1°F11.2°C 43% 2.2 mph S3.5 kmh S 3.8 mph6.1 kmh 30.00 in1015.9 mb 0.00 in0.0 mm 0.00 in0.0 mm 0.00 in0.0 mm
01:00 PM 55.6°F13.1°C 52.1°F11.2°C 42% Calm Calm 3.8 mph6.1 kmh 29.99 in1015.6 mb 0.00 in0.0 mm 0.00 in0.0 mm 0.00 in0.0 mm
01:15 PM 55.6°F13.1°C 52.1°F11.2°C 39% 1.6 mph WSW2.6 kmh WSW 3.1 mph5.0 kmh 29.99 in1015.6 mb 0.00 in0.0 mm 0.00 in0.0 mm 0.00 in0.0 mm
01:30 PM 55.6°F13.1°C 52.1°F11.2°C 38% 1.6 mph W2.6 kmh W 3.8 mph6.1 kmh 29.99 in1015.6 mb 0.00 in0.0 mm 0.00 in0.0 mm 0.00 in0.0 mm
01:45 PM 55.6°F13.1°C 52.1°F11.2°C 41% Calm Calm 3.8 mph6.1 kmh 29.98 in1015.2 mb 0.00 in0.0 mm 0.00 in0.0 mm 0.00 in0.0 mm
02:00 PM 55.6°F13.1°C 52.1°F11.2°C 43% 2.2 mph W3.5 kmh W 4.5 mph7.2 kmh 29.97 in1014.9 mb 0.00 in0.0 mm 0.00 in0.0 mm 0.00 in0.0 mm
02:15 PM 55.6°F13.1°C 52.1°F11.2°C 42% 1.6 mph W2.6 kmh W 5.4 mph8.7 kmh 29.96 in1014.6 mb 0.00 in0.0 mm 0.00 in0.0 mm 0.00 in0.0 mm
02:30 PM 55.6°F13.1°C 52.1°F11.2°C 42% 0.7 mph W1.1 kmh W 3.1 mph5.0 kmh 29.95 in1014.2 mb 0.00 in0.0 mm 0.00 in0.0 mm 0.00 in0.0 mm
02:45 PM 55.6°F13.1°C 52.1°F11.2°C 37% 1.6 mph NW2.6 kmh NW 3.1 mph5.0 kmh 29.95 in1014.2 mb 0.00 in0.0 mm 0.00 in0.0 mm 0.00 in0.0 mm
03:00 PM 55.6°F13.1°C 52.1°F11.2°C 37% 4.5 mph N7.2 kmh N 6.0 mph9.7 kmh 29.94 in1013.9 mb 0.00 in0.0 mm 0.00 in0.0 mm 0.00 in0.0 mm
03:15 PM 55.6°F13.1°C 52.1°F11.2°C 36% 2.2 mph W3.5 kmh W 4.5 mph7.2 kmh 29.94 in1013.9 mb 0.00 in0.0 mm 0.00 in0.0 mm 0.00 in0.0 mm
03:30 PM 55.6°F13.1°C 52.1°F11.2°C 35% 1.6 mph NW2.6 kmh NW 3.8 mph6.1 kmh 29.94 in1013.9 mb 0.00 in0.0 mm 0.00 in0.0 mm 0.00 in0.0 mm
03:45 PM 55.6°F13.1°C 52.1°F11.2°C 33% 1.6 mph E2.6 kmh E 3.8 mph6.1 kmh 29.93 in1013.5 mb 0.00 in0.0 mm 0.00 in0.0 mm 0.00 in0.0 mm
04:00 PM 55.6°F13.1°C 52.1°F11.2°C 36% Calm Calm 6.0 mph9.7 kmh 29.94 in1013.9 mb 0.00 in0.0 mm 0.00 in0.0 mm 0.00 in0.0 mm
04:15 PM 55.6°F13.1°C 52.1°F11.2°C 32% 0.7 mph WNW1.1 kmh WNW 4.5 mph7.2 kmh 29.93 in1013.5 mb 0.00 in0.0 mm 0.00 in0.0 mm 0.00 in0.0 mm
04:30 PM 55.6°F13.1°C 52.1°F11.2°C 35% 3.1 mph N5.0 kmh N 5.4 mph8.7 kmh 29.93 in1013.5 mb 0.00 in0.0 mm 0.00 in0.0 mm 0.00 in0.0 mm
04:45 PM 55.6°F13.1°C 52.1°F11.2°C 37% 2.2 mph E3.5 kmh E 5.4 mph8.7 kmh 29.93 in1013.5 mb 0.00 in0.0 mm 0.00 in0.0 mm 0.00 in0.0 mm
05:00 PM 55.6°F13.1°C 52.1°F11.2°C 38% 0.7 mph NE1.1 kmh NE 6.0 mph9.7 kmh 29.94 in1013.9 mb 0.00 in0.0 mm 0.00 in0.0 mm 0.00 in0.0 mm
05:15 PM 55.6°F13.1°C 52.1°F11.2°C 37% 0.7 mph N1.1 kmh N 5.4 mph8.7 kmh 29.94 in1013.9 mb 0.00 in0.0 mm 0.00 in0.0 mm 0.00 in0.0 mm
05:30 PM 55.6°F13.1°C 52.1°F11.2°C 39% 2.2 mph NNE3.5 kmh NNE 5.4 mph8.7 kmh 29.94 in1013.9 mb 0.00 in0.0 mm 0.00 in0.0 mm 0.00 in0.0 mm
05:45 PM 55.6°F13.1°C 52.1°F11.2°C 41% 3.8 mph NE6.1 kmh NE 6.0 mph9.7 kmh 29.94 in1013.9 mb 0.00 in0.0 mm 0.00 in0.0 mm 0.00 in0.0 mm
06:00 PM 55.6°F13.1°C 52.1°F11.2°C 44% 3.1 mph NE5.0 kmh NE 4.5 mph7.2 kmh 29.95 in1014.2 mb 0.00 in0.0 mm 0.00 in0.0 mm 0.00 in0.0 mm
06:15 PM 55.6°F13.1°C 52.1°F11.2°C 50% 3.1 mph NE5.0 kmh NE 5.4 mph8.7 kmh 29.95 in1014.2 mb 0.00 in0.0 mm 0.00 in0.0 mm 0.00 in0.0 mm
06:30 PM 55.6°F13.1°C 52.1°F11.2°C 52% 3.1 mph NE5.0 kmh NE 4.5 mph7.2 kmh 29.94 in1013.9 mb 0.00 in0.0 mm 0.00 in0.0 mm 0.00 in0.0 mm
06:45 PM 55.6°F13.1°C 52.1°F11.2°C 53% 2.2 mph ENE3.5 kmh ENE 5.4 mph8.7 kmh 29.95 in1014.2 mb 0.00 in0.0 mm 0.00 in0.0 mm 0.00 in0.0 mm
07:00 PM 55.6°F13.1°C 52.1°F11.2°C 55% 1.6 mph NE2.6 kmh NE 6.0 mph9.7 kmh 29.96 in1014.6 mb 0.00 in0.0 mm 0.00 in0.0 mm 0.00 in0.0 mm
07:15 PM 55.6°F13.1°C 52.1°F11.2°C 58% 1.6 mph SE2.6 kmh SE 4.5 mph7.2 kmh 29.96 in1014.6 mb 0.00 in0.0 mm 0.00 in0.0 mm 0.00 in0.0 mm
07:30 PM 55.6°F13.1°C 52.1°F11.2°C 59% Calm Calm 2.2 mph3.5 kmh 29.96 in1014.6 mb 0.00 in0.0 mm 0.00 in0.0 mm 0.00 in0.0 mm
07:45 PM 55.6°F13.1°C 52.1°F11.2°C 62% 0.7 mph E1.1 kmh E 2.2 mph3.5 kmh 29.97 in1014.9 mb 0.00 in0.0 mm 0.00 in0.0 mm 0.00 in0.0 mm
08:00 PM 55.6°F13.1°C 52.1°F11.2°C 64% Calm Calm 1.6 mph2.6 kmh 29.97 in1014.9 mb 0.00 in0.0 mm 0.00 in0.0 mm 0.00 in0.0 mm
08:15 PM 55.6°F13.1°C 52.1°F11.2°C 64% Calm Calm 1.6 mph2.6 kmh 29.97 in1014.9 mb 0.00 in0.0 mm 0.00 in0.0 mm 0.00 in0.0 mm
08:30 PM 55.6°F13.1°C 52.1°F11.2°C 65% 0.7 mph SE1.1 kmh SE 1.6 mph2.6 kmh 29.97 in1014.9 mb 0.00 in0.0 mm 0.00 in0.0 mm 0.00 in0.0 mm
08:45 PM 55.6°F13.1°C 52.1°F11.2°C 68% 0.7 mph WSW1.1 kmh WSW 2.2 mph3.5 kmh 29.97 in1014.9 mb 0.00 in0.0 mm 0.00 in0.0 mm 0.00 in0.0 mm
09:00 PM 55.6°F13.1°C 52.1°F11.2°C 68% Calm Calm 1.6 mph2.6 kmh 29.97 in1014.9 mb 0.00 in0.0 mm 0.00 in0.0 mm 0.00 in0.0 mm
09:15 PM 55.6°F13.1°C 52.1°F11.2°C 70% 2.2 mph SSE3.5 kmh SSE 3.1 mph5.0 kmh 29.97 in1014.9 mb 0.00 in0.0 mm 0.00 in0.0 mm 0.00 in0.0 mm
09:30 PM 55.6°F13.1°C 52.1°F11.2°C 70% 1.6 mph SE2.6 kmh SE 3.1 mph5.0 kmh 29.97 in1014.9 mb 0.00 in0.0 mm 0.00 in0.0 mm 0.00 in0.0 mm
09:45 PM 55.6°F13.1°C 52.1°F11.2°C 71% Calm Calm 3.8 mph6.1 kmh 29.98 in1015.2 mb 0.00 in0.0 mm 0.00 in0.0 mm 0.00 in0.0 mm
10:00 PM 55.6°F13.1°C 52.1°F11.2°C 71% 0.7 mph SE1.1 kmh SE 1.6 mph2.6 kmh 29.98 in1015.2 mb 0.00 in0.0 mm 0.00 in0.0 mm 0.00 in0.0 mm
10:15 PM 58.8°F14.9°C 50.6°F10.3°C 74% Calm Calm 1.6 mph2.6 kmh 29.98 in1015.2 mb 0.00 in0.0 mm 0.00 in0.0 mm 0.00 in0.0 mm
10:30 PM 58.5°F14.7°C 50.6°F10.3°C 75% Calm Calm 1.6 mph2.6 kmh 29.97 in1014.9 mb 0.00 in0.0 mm 0.00 in0.0 mm 0.00 in0.0 mm
10:45 PM 57.4°F14.1°C 50.2°F10.1°C 77% Calm Calm -- 29.98 in1015.2 mb 0.00 in0.0 mm 0.00 in0.0 mm 0.00 in0.0 mm
11:00 PM 57.0°F13.9°C 50.2°F10.1°C 78% Calm Calm -- 29.98 in1015.2 mb 0.00 in0.0 mm 0.00 in0.0 mm 0.00 in0.0 mm
11:15 PM 57.0°F13.9°C 50.9°F10.5°C 80% 1.6 mph NNE2.6 kmh NNE 2.2 mph3.5 kmh 29.98 in1015.2 mb 0.00 in0.0 mm 0.00 in0.0 mm 0.00 in0.0 mm
11:30 PM 57.4°F14.1°C 51.9°F11.1°C 82% 1.6 mph SE2.6 kmh SE 2.2 mph3.5 kmh 29.98 in1015.2 mb 0.00 in0.0 mm 0.00 in0.0 mm 0.00 in0.0 mm
11:45 PM 57.4°F14.1°C 51.9°F11.1°C 82% 0.7 mph E1.1 kmh E 2.2 mph3.5 kmh 29.98 in1015.2 mb 0.00 in0.0 mm 0.00 in0.0 mm 0.00 in0.0 mm